Time;durP1;ratioP1;P1;durP2;ratioP2;P2;SDS_P1;SDS_P2;PMS_P1;PMS_P2;Temp;Humidity;BMP_temperature;BMP_pressure;BME280_temperature;BME280_humidity;BME280_pressure;Samples;Min_cycle;Max_cycle;Signal;HPM_P1;HPM_P2
2023/04/17 00:01:42;;;;;;;21.67;12.90;;;;;;;6.29;100.00;99079.75;4163188;28;20045;-75
2023/04/17 00:03:43;;;;;;;21.70;12.40;;;;;;;6.28;100.00;99083.66;4173874;28;20047;-75
2023/04/17 00:05:45;;;;;;;21.17;11.82;;;;;;;6.29;100.00;99088.81;4158302;28;20041;-75
2023/04/17 00:07:45;;;;;;;22.42;12.85;;;;;;;6.33;100.00;99092.50;4159071;28;20068;-75
2023/04/17 00:09:45;;;;;;;24.85;13.93;;;;;;;6.29;100.00;99085.25;4158233;28;20049;-75
2023/04/17 00:11:45;;;;;;;24.33;13.18;;;;;;;6.27;100.00;99082.84;4160440;28;20466;-75
2023/04/17 00:13:46;;;;;;;20.83;12.80;;;;;;;6.24;100.00;99085.47;4158219;28;20047;-75
2023/04/17 00:15:46;;;;;;;26.35;13.70;;;;;;;6.22;100.00;99085.00;4143176;28;20046;-75
2023/04/17 00:17:47;;;;;;;24.98;14.10;;;;;;;6.24;100.00;99085.47;4159772;28;20096;-76
2023/04/17 00:19:47;;;;;;;24.70;13.45;;;;;;;6.22;100.00;99085.00;4158696;28;20485;-76
2023/04/17 00:21:47;;;;;;;22.15;13.07;;;;;;;6.23;100.00;99081.91;4160997;28;20037;-75
2023/04/17 00:23:48;;;;;;;23.90;14.43;;;;;;;6.21;100.00;99081.47;4165492;28;20061;-76
2023/04/17 00:25:48;;;;;;;21.85;13.10;;;;;;;6.24;100.00;99090.97;4158979;28;20052;-75
2023/04/17 00:27:49;;;;;;;24.05;12.75;;;;;;;6.23;100.00;99081.13;4160075;28;20201;-75
2023/04/17 00:29:49;;;;;;;20.67;12.68;;;;;;;6.24;100.00;99085.47;4160192;28;20045;-75
2023/04/17 00:31:50;;;;;;;21.80;12.55;;;;;;;6.22;100.00;99076.75;4178092;28;20058;-76
2023/04/17 00:33:50;;;;;;;21.98;13.20;;;;;;;6.26;100.00;99078.50;4161924;28;20041;-76
2023/04/17 00:35:51;;;;;;;21.77;13.48;;;;;;;6.26;100.00;99080.44;4160378;28;20029;-75
2023/04/17 00:37:51;;;;;;;21.33;13.05;;;;;;;6.24;100.00;99086.28;4165350;28;20505;-76
2023/04/17 00:39:51;;;;;;;24.90;12.60;;;;;;;6.24;100.00;99079.97;4158729;28;20381;-75
2023/04/17 00:41:52;;;;;;;21.67;14.15;;;;;;;6.23;100.00;99081.91;4160373;28;20076;-75
2023/04/17 00:43:52;;;;;;;22.63;12.85;;;;;;;6.23;100.00;99078.38;4158392;28;20049;-76
2023/04/17 00:45:52;;;;;;;22.77;12.55;;;;;;;6.24;100.00;99074.47;4159512;28;20466;-75
2023/04/17 00:47:54;;;;;;;20.30;12.40;;;;;;;6.25;100.00;99082.38;4159204;28;20042;-75
2023/04/17 00:49:54;;;;;;;20.23;12.50;;;;;;;6.22;100.00;99083.06;4160222;28;20136;-75
2023/04/17 00:51:55;;;;;;;20.05;11.68;;;;;;;6.23;100.00;99081.13;4165322;28;20077;-75
2023/04/17 00:53:55;;;;;;;20.10;12.23;;;;;;;6.23;100.00;99078.38;4158371;28;20428;-75
2023/04/17 00:55:57;;;;;;;22.00;12.23;;;;;;;6.24;100.00;99079.97;4160262;28;20169;-75
2023/04/17 00:57:57;;;;;;;19.90;12.48;;;;;;;6.22;100.00;99083.06;4163710;28;20072;-75
2023/04/17 00:59:58;;;;;;;22.35;13.20;;;;;;;6.14;100.00;99073.75;4159562;28;20359;-75
2023/04/17 01:01:58;;;;;;;21.23;12.75;;;;;;;6.17;100.00;99072.25;4159121;28;20473;-75
2023/04/17 01:04:00;;;;;;;18.33;11.95;;;;;;;6.17;100.00;99073.06;4158974;28;20451;-75
2023/04/17 01:06:01;;;;;;;22.50;13.03;;;;;;;6.16;100.00;99076.16;4159536;28;20046;-75
2023/04/17 01:08:02;;;;;;;21.65;13.15;;;;;;;6.14;100.00;99073.75;4162476;28;20095;-75
2023/04/17 01:10:02;;;;;;;20.70;13.15;;;;;;;6.14;100.00;99070.19;4159879;28;20478;-75
2023/04/17 01:12:20;;;;;;;22.88;13.15;;;;;;;6.11;100.00;99065.34;4159050;28;20017;-75
2023/04/17 01:14:21;;;;;;;21.40;12.50;;;;;;;6.10;100.00;99061.00;4157733;28;20076;-75
2023/04/17 01:16:22;;;;;;;20.48;12.70;;;;;;;6.14;100.00;99070.19;4160174;28;20045;-75
2023/04/17 01:18:22;;;;;;;22.50;12.15;;;;;;;6.15;100.00;99060.81;4159863;28;20053;-75
2023/04/17 01:20:24;;;;;;;21.45;13.57;;;;;;;6.18;100.00;99066.41;4158510;28;20076;-75
2023/04/17 01:22:24;;;;;;;21.80;12.38;;;;;;;6.22;100.00;99071.25;4159139;28;20045;-75
2023/04/17 01:24:24;;;;;;;20.77;13.27;;;;;;;6.18;100.00;99063.66;4163917;28;20049;-75
2023/04/17 01:26:26;;;;;;;20.27;12.02;;;;;;;6.23;100.00;99068.19;4166225;28;20463;-76
2023/04/17 01:28:26;;;;;;;22.67;12.80;;;;;;;6.18;100.00;99071.91;4158033;28;20049;-75
2023/04/17 01:30:27;;;;;;;19.77;13.18;;;;;;;6.16;100.00;99068.69;4158719;28;20100;-75
2023/04/17 01:32:27;;;;;;;23.80;13.48;;;;;;;6.15;100.00;99067.09;4158858;28;20045;-75
2023/04/17 01:34:27;;;;;;;18.85;12.75;;;;;;;6.18;100.00;99071.91;4161585;28;20052;-75
2023/04/17 01:36:28;;;;;;;19.75;12.13;;;;;;;6.21;100.00;99070.47;4159930;28;20521;-75
2023/04/17 01:38:28;;;;;;;18.27;12.15;;;;;;;6.20;100.00;99071.56;4159335;28;20133;-75
2023/04/17 01:40:28;;;;;;;20.27;12.35;;;;;;;6.17;100.00;99072.25;4158934;28;20042;-76
2023/04/17 01:42:29;;;;;;;23.17;13.77;;;;;;;6.15;100.00;99067.09;4160079;28;20045;-75
2023/04/17 01:44:29;;;;;;;21.95;12.27;;;;;;;6.17;100.00;99075.81;4141437;28;20046;-75
2023/04/17 01:46:30;;;;;;;21.30;12.68;;;;;;;6.15;100.00;99072.59;4160488;28;20038;-75
2023/04/17 01:48:30;;;;;;;19.38;12.32;;;;;;;6.15;100.00;99078.09;4158203;28;20048;-76
2023/04/17 01:50:30;;;;;;;20.88;12.68;;;;;;;6.13;100.00;99066.63;4160242;28;20041;-75
2023/04/17 01:52:31;;;;;;;22.98;13.35;;;;;;;6.14;100.00;99075.69;4158313;28;20051;-75
2023/04/17 01:54:31;;;;;;;20.00;13.05;;;;;;;6.12;100.00;99077.94;4157744;28;20038;-76
2023/04/17 01:56:31;;;;;;;21.73;12.45;;;;;;;6.14;100.00;99075.69;4161137;28;20076;-76
2023/04/17 01:58:32;;;;;;;19.63;11.35;;;;;;;6.11;100.00;99076.34;4141621;28;20038;-75
2023/04/17 02:00:32;;;;;;;20.88;13.75;;;;;;;6.12;100.00;99076.03;4140385;28;20174;-75
2023/04/17 02:02:33;;;;;;;20.08;12.65;;;;;;;6.12;100.00;99069.69;4157611;28;20130;-75
2023/04/17 02:04:33;;;;;;;20.08;13.57;;;;;;;6.11;100.00;99073.59;4174231;28;20073;-75
2023/04/17 02:06:33;;;;;;;18.00;12.00;;;;;;;6.10;100.00;99075.53;4160890;28;20043;-75
2023/04/17 02:08:33;;;;;;;19.67;12.02;;;;;;;6.12;100.00;99078.78;4162589;28;20037;-75
2023/04/17 02:10:34;;;;;;;23.35;13.90;;;;;;;6.13;100.00;99085.88;4162720;28;20159;-75
2023/04/17 02:12:34;;;;;;;19.98;13.07;;;;;;;6.14;100.00;99075.69;4161170;28;20037;-75
2023/04/17 02:14:35;;;;;;;20.75;13.30;;;;;;;6.13;100.00;99076.81;4161261;28;20484;-75
2023/04/17 02:16:36;;;;;;;19.65;12.65;;;;;;;6.12;100.00;99076.03;4143863;28;20476;-75
2023/04/17 02:18:38;;;;;;;22.20;13.20;;;;;;;6.11;100.00;99079.06;4162109;28;20052;-75
2023/04/17 02:20:38;;;;;;;19.45;12.30;;;;;;;6.11;100.00;99079.88;4161155;28;20497;-75
2023/04/17 02:22:38;;;;;;;16.75;10.70;;;;;;;6.10;100.00;99077.47;4161040;28;20209;-75
2023/04/17 02:24:39;;;;;;;17.17;12.10;;;;;;;6.10;100.00;99081.03;4161756;28;20474;-75
2023/04/17 02:26:39;;;;;;;19.25;11.15;;;;;;;6.11;100.00;99081.81;4161247;28;20092;-75
2023/04/17 02:28:42;;;;;;;21.02;13.25;;;;;;;6.10;100.00;99081.03;4162176;28;20041;-75
2023/04/17 02:30:44;;;;;;;20.48;12.60;;;;;;;6.13;100.00;99079.56;4161409;28;20041;-75
2023/04/17 02:32:45;;;;;;;19.20;11.83;;;;;;;6.12;100.00;99080.69;4165015;28;20037;-75
2023/04/17 02:34:45;;;;;;;20.20;13.43;;;;;;;6.11;100.00;99079.06;4162591;28;20032;-75
2023/04/17 02:36:45;;;;;;;18.67;12.35;;;;;;;6.13;100.00;99090.56;4161328;28;20061;-75
2023/04/17 02:38:45;;;;;;;21.67;12.75;;;;;;;6.11;100.00;99079.06;4162701;28;20155;-75
2023/04/17 02:40:46;;;;;;;21.70;12.65;;;;;;;6.08;100.00;99079.75;4160953;28;20454;-75
2023/04/17 02:42:46;;;;;;;18.55;12.20;;;;;;;6.11;100.00;99084.56;4160827;28;20080;-75
2023/04/17 02:44:46;;;;;;;17.58;11.77;;;;;;;6.11;100.00;99092.81;4161837;28;20081;-75
2023/04/17 02:46:47;;;;;;;15.82;10.63;;;;;;;6.17;100.00;99092.28;4160784;28;20107;-75
2023/04/17 02:48:47;;;;;;;20.55;11.35;;;;;;;6.15;100.00;99086.34;4161120;28;20080;-75
2023/04/17 02:50:47;;;;;;;17.73;11.73;;;;;;;6.10;100.00;99083.78;4160944;28;20477;-75
2023/04/17 02:52:48;;;;;;;17.55;11.63;;;;;;;6.10;100.00;99077.47;4161898;28;20037;-75
2023/04/17 02:54:48;;;;;;;17.42;11.75;;;;;;;6.11;100.00;99079.06;4160430;28;20041;-75
2023/04/17 02:56:49;;;;;;;17.88;11.48;;;;;;;6.07;100.00;99078.94;4161261;28;20049;-75
2023/04/17 02:58:50;;;;;;;14.23;10.18;;;;;;;6.04;100.00;99070.56;4160862;28;20040;-75
2023/04/17 03:00:50;;;;;;;18.23;10.60;;;;;;;6.04;100.00;99076.88;4160222;28;20389;-75
2023/04/17 03:02:51;;;;;;;17.15;11.60;;;;;;;6.04;100.00;99079.63;4160754;28;20080;-75
2023/04/17 03:04:51;;;;;;;16.75;10.68;;;;;;;6.01;100.00;99091.25;4161352;28;20187;-75
2023/04/17 03:06:52;;;;;;;16.00;10.98;;;;;;;6.01;100.00;99084.97;4161473;28;20382;-75
2023/04/17 03:08:52;;;;;;;19.08;11.52;;;;;;;6.00;100.00;99086.91;4159661;28;20124;-75
2023/04/17 03:10:53;;;;;;;17.55;10.88;;;;;;;5.95;100.00;99078.84;4161448;28;20050;-75
2023/04/17 03:12:53;;;;;;;16.67;10.75;;;;;;;5.98;100.00;99086.44;4161996;28;20444;-76
2023/04/17 03:14:53;;;;;;;16.88;11.18;;;;;;;5.93;100.00;99078.38;4163645;28;20049;-75
2023/04/17 03:16:54;;;;;;;14.57;10.20;;;;;;;5.93;100.00;99081.13;4162179;28;20063;-75
2023/04/17 03:18:54;;;;;;;16.25;10.57;;;;;;;5.94;100.00;99079.19;4160658;28;20038;-75
2023/04/17 03:20:55;;;;;;;17.17;10.70;;;;;;;5.91;100.00;99089.72;4159336;28;20067;-75
2023/04/17 03:22:55;;;;;;;16.40;11.27;;;;;;;5.92;100.00;99090.53;4165960;28;20067;-76
2023/04/17 03:24:55;;;;;;;17.10;10.57;;;;;;;5.91;100.00;99083.41;4161261;28;20038;-75
2023/04/17 03:26:57;;;;;;;15.25;10.75;;;;;;;5.87;100.00;99088.72;4160207;28;20127;-76
2023/04/17 03:28:57;;;;;;;16.17;11.45;;;;;;;5.92;100.00;99096.00;4164366;28;20448;-75
2023/04/17 03:30:58;;;;;;;17.48;10.52;;;;;;;5.86;100.00;99087.13;4166879;28;20072;-75
2023/04/17 03:32:58;;;;;;;17.33;10.90;;;;;;;5.88;100.00;99095.84;4159519;28;20060;-75
2023/04/17 03:34:59;;;;;;;15.80;10.55;;;;;;;5.89;100.00;99088.41;4169120;28;20075;-75
2023/04/17 03:36:59;;;;;;;18.63;11.15;;;;;;;5.88;100.00;99100.53;4164003;28;20515;-75
2023/04/17 03:38:59;;;;;;;15.68;10.88;;;;;;;5.89;100.00;99097.47;4160228;28;20069;-75
2023/04/17 03:41:00;;;;;;;15.95;11.30;;;;;;;5.88;100.00;99097.78;4160215;28;20046;-75
2023/04/17 03:43:00;;;;;;;17.88;10.75;;;;;;;5.86;100.00;99094.56;4159259;28;20042;-75
2023/04/17 03:45:03;;;;;;;21.17;11.68;;;;;;;5.86;100.00;99097.31;4160606;28;20124;-75
2023/04/17 03:47:03;;;;;;;17.13;11.52;;;;;;;5.85;100.00;99096.50;4160509;28;20038;-75
2023/04/17 03:49:04;;;;;;;20.13;11.63;;;;;;;5.82;100.00;99094.44;4142387;28;20044;-75
2023/04/17 03:51:04;;;;;;;16.65;11.05;;;;;;;5.83;100.00;99096.03;4165595;28;20302;-75
2023/04/17 03:53:05;;;;;;;15.55;10.85;;;;;;;5.83;100.00;99095.22;4159924;28;20137;-75
2023/04/17 03:55:06;;;;;;;16.88;10.77;;;;;;;5.81;100.00;99097.50;4160741;28;20069;-75
2023/04/17 03:57:06;;;;;;;20.60;13.32;;;;;;;5.78;100.00;99098.16;4159945;28;20052;-75
2023/04/17 03:59:06;;;;;;;20.05;12.77;;;;;;;5.77;100.00;99104.78;4160438;28;20045;-75
2023/04/17 04:01:09;;;;;;;18.88;12.55;;;;;;;5.78;100.00;99100.91;4174794;28;20067;-75
2023/04/17 04:03:09;;;;;;;;;;;;;;;5.75;100.00;99096.88;4161809;28;20040;-75
2023/04/17 04:05:10;;;;;;;18.00;11.13;;;;;;;5.73;100.00;99092.88;4162585;28;19925;-76
2023/04/17 04:07:10;;;;;;;18.25;11.30;;;;;;;5.75;100.00;99096.88;4163991;28;20485;-75
2023/04/17 04:09:10;;;;;;;20.25;12.48;;;;;;;5.77;100.00;99102.84;4163326;28;20044;-75
2023/04/17 04:11:11;;;;;;;16.88;11.80;;;;;;;5.77;100.00;99099.28;4161569;28;20320;-75
2023/04/17 04:13:12;;;;;;;19.70;11.98;;;;;;;5.73;100.00;99104.66;4160718;28;20038;-76
2023/04/17 04:15:12;;;;;;;19.25;12.07;;;;;;;5.73;100.00;99114.81;4165681;28;20045;-75
2023/04/17 04:17:13;;;;;;;18.27;11.45;;;;;;;5.72;100.00;99115.97;4161921;28;20367;-75
2023/04/17 04:19:13;;;;;;;18.52;11.77;;;;;;;5.71;100.00;99117.06;4163029;28;20037;-76
2023/04/17 04:21:13;;;;;;;19.42;11.60;;;;;;;5.68;100.00;99107.56;4163275;28;20481;-75
2023/04/17 04:23:15;;;;;;;17.20;12.32;;;;;;;5.71;100.00;99119.81;4159210;28;20029;-75
2023/04/17 04:25:16;;;;;;;16.60;10.90;;;;;;;5.71;100.00;99123.41;4178779;28;20091;-75
2023/04/17 04:27:17;;;;;;;15.98;10.95;;;;;;;5.69;100.00;99116.59;4160961;28;20126;-75
2023/04/17 04:29:17;;;;;;;17.77;11.80;;;;;;;5.70;100.00;99119.03;4162051;28;20533;-75
2023/04/17 04:31:18;;;;;;;14.50;10.38;;;;;;;5.70;100.00;99123.72;4162764;28;20061;-75
2023/04/17 04:33:19;;;;;;;16.98;10.65;;;;;;;5.70;100.00;99123.72;4160693;28;20119;-75
2023/04/17 04:35:20;;;;;;;19.35;11.20;;;;;;;5.68;100.00;99126.78;4159286;28;20045;-76
2023/04/17 04:37:20;;;;;;;18.02;10.40;;;;;;;5.70;100.00;99126.44;4163356;28;20048;-75
2023/04/17 04:39:21;;;;;;;16.00;11.10;;;;;;;5.68;100.00;99123.25;4161935;28;20495;-76
2023/04/17 04:41:24;;;;;;;16.33;11.25;;;;;;;5.65;100.00;99121.97;4159938;28;20045;-76
2023/04/17 04:43:24;;;;;;;16.45;10.02;;;;;;;5.64;100.00;99123.91;4162321;28;20040;-75
2023/04/17 04:45:24;;;;;;;15.40;10.50;;;;;;;5.68;100.00;99134.22;4162363;28;20106;-75
2023/04/17 04:47:25;;;;;;;16.35;11.13;;;;;;;5.69;100.00;99130.34;4162097;28;20029;-75
2023/04/17 04:49:25;;;;;;;16.95;10.68;;;;;;;5.70;100.00;99130.00;4161281;28;20280;-75
2023/04/17 04:51:25;;;;;;;18.40;11.02;;;;;;;5.73;100.00;99134.06;4161844;28;20409;-75
2023/04/17 04:53:26;;;;;;;16.38;10.43;;;;;;;5.73;100.00;99128.56;4160084;28;20619;-75
2023/04/17 04:55:26;;;;;;;18.50;10.77;;;;;;;5.68;100.00;99135.03;4124514;28;21044;-75
2023/04/17 04:57:26;;;;;;;15.25;10.63;;;;;;;5.71;100.00;99145.38;4171139;28;20040;-76
2023/04/17 04:59:27;;;;;;;15.93;10.88;;;;;;;5.66;100.00;99140.03;4165205;28;20080;-75
2023/04/17 05:01:28;;;;;;;16.35;10.38;;;;;;;5.68;100.00;99134.22;4161229;28;20037;-75
2023/04/17 05:03:28;;;;;;;14.40;10.27;;;;;;;5.66;100.00;99142.00;4159808;28;20045;-75
2023/04/17 05:05:29;;;;;;;16.65;10.10;;;;;;;5.68;100.00;99135.03;4163345;28;20144;-75
2023/04/17 05:07:29;;;;;;;13.68;9.85;;;;;;;5.64;100.00;99140.38;4160414;28;20091;-75
2023/04/17 05:09:34;;;;;;;15.52;11.05;;;;;;;5.61;100.00;99146.50;4160949;28;20394;-76
2023/04/17 05:11:34;;;;;;;16.30;10.10;;;;;;;5.59;100.00;99143.28;4161733;28;20475;-75
2023/04/17 05:13:35;;;;;;;12.55;9.20;;;;;;;5.62;100.00;99148.13;4160029;28;20153;-76
2023/04/17 05:15:35;;;;;;;12.35;8.45;;;;;;;5.62;100.00;99150.88;4163569;28;20475;-75
2023/04/17 05:17:36;;;;;;;13.18;9.15;;;;;;;5.68;100.00;99151.50;4161204;28;20068;-76
2023/04/17 05:19:36;;;;;;;11.85;9.30;;;;;;;5.74;100.00;99154.88;4163603;28;20050;-75
2023/04/17 05:21:36;;;;;;;11.95;9.02;;;;;;;5.63;100.00;99149.75;4166146;28;20048;-75
2023/04/17 05:23:37;;;;;;;14.10;9.32;;;;;;;5.64;100.00;99158.78;4160150;28;20049;-75
2023/04/17 05:25:37;;;;;;;14.30;9.07;;;;;;;5.62;100.00;99161.84;4162740;28;20080;-75
2023/04/17 05:27:37;;;;;;;15.18;9.98;;;;;;;5.60;100.00;99160.56;4161097;28;20084;-75
2023/04/17 05:29:38;;;;;;;12.45;9.32;;;;;;;5.66;100.00;99161.22;4159739;28;20041;-75
2023/04/17 05:31:39;;;;;;;11.02;7.68;;;;;;;5.59;100.00;99156.22;4163430;28;20033;-75
2023/04/17 05:33:39;;;;;;;14.68;9.93;;;;;;;5.58;100.00;99158.16;4165635;28;20033;-75
2023/04/17 05:35:40;;;;;;;15.63;9.02;;;;;;;5.53;100.00;99154.78;4159491;28;20034;-75
2023/04/17 05:37:40;;;;;;;16.95;10.88;;;;;;;5.52;100.00;99162.22;4158062;28;20466;-75
2023/04/17 05:39:40;;;;;;;16.20;10.38;;;;;;;5.51;100.00;99155.13;4160325;28;20037;-75
2023/04/17 05:41:40;;;;;;;17.67;10.20;;;;;;;5.49;100.00;99156.59;4158375;28;20177;-75
2023/04/17 05:43:41;;;;;;;14.38;9.45;;;;;;;5.50;100.00;99163.69;4164561;28;20633;-75
2023/04/17 05:45:42;;;;;;;14.25;9.95;;;;;;;5.50;100.00;99164.47;4163491;28;20546;-75
2023/04/17 05:47:42;;;;;;;13.52;9.70;;;;;;;5.53;100.00;99169.31;4162816;28;20446;-75
2023/04/17 05:49:43;;;;;;;13.80;9.85;;;;;;;5.50;100.00;99161.75;4161146;28;20135;-75
2023/04/17 05:51:43;;;;;;;15.95;9.80;;;;;;;5.48;100.00;99158.53;4161394;28;20115;-75
2023/04/17 05:53:44;;;;;;;13.00;9.63;;;;;;;5.48;100.00;99174.19;4161110;28;20474;-75
2023/04/17 05:55:44;;;;;;;13.50;9.95;;;;;;;5.48;100.00;99166.75;4165421;28;20136;-75
2023/04/17 05:57:45;;;;;;;14.85;9.15;;;;;;;5.47;100.00;99170.63;4160292;28;20055;-75
2023/04/17 05:59:45;;;;;;;13.70;9.20;;;;;;;5.48;100.00;99177.75;4161405;28;20043;-75
2023/04/17 06:01:46;;;;;;;13.52;9.63;;;;;;;5.51;100.00;99165.28;4161658;28;20437;-75
2023/04/17 06:03:46;;;;;;;13.70;9.65;;;;;;;5.50;100.00;99164.47;4159659;28;20049;-75
2023/04/17 06:05:47;;;;;;;12.43;9.10;;;;;;;5.53;100.00;99163.81;4163345;28;20056;-75
2023/04/17 06:07:47;;;;;;;14.95;10.13;;;;;;;5.56;100.00;99165.94;4162647;28;20128;-75
2023/04/17 06:09:48;;;;;;;14.95;9.98;;;;;;;5.60;100.00;99175.09;4161857;28;20045;-74
2023/04/17 06:11:48;;;;;;;15.05;9.80;;;;;;;5.61;100.00;99168.47;4164520;28;20165;-75
2023/04/17 06:13:48;;;;;;;15.05;8.93;;;;;;;5.61;100.00;99162.97;4181501;28;20131;-75
2023/04/17 06:15:50;;;;;;;14.65;9.82;;;;;;;5.61;100.00;99165.72;4165489;28;20021;-75
2023/04/17 06:17:50;;;;;;;14.07;9.25;;;;;;;5.64;100.00;99175.28;4164021;28;20043;-75
2023/04/17 06:19:50;;;;;;;17.10;10.35;;;;;;;5.64;100.00;99162.34;4163722;28;20064;-75
2023/04/17 06:21:51;;;;;;;14.60;9.57;;;;;;;5.71;100.00;99172.00;4162653;28;20698;-75
2023/04/17 06:23:51;;;;;;;14.00;9.60;;;;;;;5.79;100.00;99173.91;4165332;28;20127;-75
2023/04/17 06:25:51;;;;;;;15.02;9.93;;;;;;;5.75;100.00;99172.97;4163004;28;20072;-75
2023/04/17 06:27:52;;;;;;;13.20;9.70;;;;;;;5.77;100.00;99176.16;4165490;28;20037;-75
2023/04/17 06:29:52;;;;;;;14.50;10.30;;;;;;;5.79;100.00;99180.22;4162575;28;20347;-75
2023/04/17 06:31:52;;;;;;;15.93;10.32;;;;;;;5.82;100.00;99181.50;4161339;28;20056;-75
2023/04/17 06:33:52;;;;;;;16.13;9.77;;;;;;;5.86;100.00;99182.44;4160693;28;20091;-75
2023/04/17 06:35:53;;;;;;;13.68;8.98;;;;;;;5.78;100.00;99175.84;4159897;28;20413;-75
2023/04/17 06:37:54;;;;;;;15.57;9.68;;;;;;;5.87;100.00;99181.28;4164573;28;20088;-75
2023/04/17 06:39:54;;;;;;;15.82;10.60;;;;;;;5.87;100.00;99181.28;4165060;28;20132;-75
2023/04/17 06:41:55;;;;;;;13.80;10.07;;;;;;;5.92;100.00;99189.41;4162247;28;20072;-75
2023/04/17 06:43:56;;;;;;;16.25;10.35;;;;;;;5.98;100.00;99188.09;4160603;28;20045;-75
2023/04/17 06:45:56;;;;;;;13.40;10.05;;;;;;;6.02;100.00;99191.75;4161301;28;20041;-75
2023/04/17 06:47:56;;;;;;;16.08;10.02;;;;;;;5.98;100.00;99193.56;4161209;28;20509;-75
2023/04/17 06:49:58;;;;;;;15.98;10.00;;;;;;;6.00;100.00;99193.25;4161404;28;20072;-75
2023/04/17 06:51:59;;;;;;;15.35;10.20;;;;;;;5.98;100.00;99196.31;4160479;28;20122;-75
2023/04/17 06:53:59;;;;;;;15.65;10.23;;;;;;;6.02;100.00;99190.97;4159877;28;20108;-75
2023/04/17 06:56:00;;;;;;;20.20;10.70;;;;;;;5.95;100.00;99194.22;4161956;28;20187;-75
2023/04/17 06:58:00;;;;;;;19.67;9.98;;;;;;;5.94;100.00;99198.09;4160600;28;20037;-75
2023/04/17 07:00:01;;;;;;;15.60;10.27;;;;;;;5.92;100.00;99200.38;4161183;28;20052;-75
2023/04/17 07:02:01;;;;;;;15.68;10.25;;;;;;;5.93;100.00;99201.19;4161101;28;20460;-75
2023/04/17 07:04:02;;;;;;;15.73;10.52;;;;;;;5.90;100.00;99208.13;4160495;28;20056;-75
2023/04/17 07:06:02;;;;;;;17.17;10.70;;;;;;;5.91;100.00;99210.56;4161647;28;20405;-75
2023/04/17 07:08:03;;;;;;;15.50;10.43;;;;;;;5.89;100.00;99206.50;4160412;28;20037;-75
2023/04/17 07:10:04;;;;;;;17.13;11.30;;;;;;;5.92;100.00;99216.84;4161103;28;20033;-75
2023/04/17 07:12:04;;;;;;;15.63;10.57;;;;;;;5.89;100.00;99214.75;4161598;28;20359;-75
2023/04/17 07:14:05;;;;;;;15.30;11.23;;;;;;;5.91;100.00;99216.06;4159831;28;20036;-75
2023/04/17 07:16:05;;;;;;;17.20;10.40;;;;;;;5.88;100.00;99213.94;4162324;28;20026;-75
2023/04/17 07:18:06;;;;;;;16.55;10.43;;;;;;;5.85;100.00;99217.34;4167120;28;20057;-75
2023/04/17 07:20:07;;;;;;;17.50;11.30;;;;;;;5.81;100.00;99221.09;4160921;28;20026;-75
2023/04/17 07:22:08;;;;;;;18.02;11.60;;;;;;;5.88;100.00;99222.19;4160200;28;20289;-75
2023/04/17 07:24:08;;;;;;;18.17;11.32;;;;;;;5.83;100.00;99224.28;4161351;28;20381;-75
2023/04/17 07:26:10;;;;;;;18.67;12.63;;;;;;;5.84;100.00;99232.19;4161270;28;20124;-75
2023/04/17 07:28:10;;;;;;;16.33;11.47;;;;;;;5.83;100.00;99229.78;4159811;28;20044;-75
2023/04/17 07:30:11;;;;;;;16.95;11.00;;;;;;;5.82;100.00;99239.16;4163555;28;20037;-75
2023/04/17 07:32:13;;;;;;;15.57;10.45;;;;;;;5.84;100.00;99237.69;4160421;28;20026;-74
2023/04/17 07:34:13;;;;;;;16.85;11.63;;;;;;;5.84;100.00;99234.16;4159156;28;20478;-75
2023/04/17 07:36:14;;;;;;;17.38;11.48;;;;;;;5.88;100.00;99237.84;4158520;28;20025;-75
2023/04/17 07:38:15;;;;;;;17.75;12.00;;;;;;;5.84;100.00;99234.16;4160709;28;20583;-75
2023/04/17 07:40:16;;;;;;;16.15;10.93;;;;;;;5.85;100.00;99244.00;4159391;28;20030;-75
2023/04/17 07:42:16;;;;;;;17.90;10.57;;;;;;;5.87;100.00;99241.72;4158512;28;20040;-75
2023/04/17 07:44:17;;;;;;;17.80;11.85;;;;;;;5.89;100.00;99248.50;4159778;28;20466;-75
2023/04/17 07:46:17;;;;;;;16.50;10.50;;;;;;;5.89;100.00;99253.19;4160141;28;20415;-75
2023/04/17 07:48:18;;;;;;;15.43;9.98;;;;;;;5.85;100.00;99254.97;4159320;28;20075;-75
2023/04/17 07:50:19;;;;;;;14.73;9.38;;;;;;;5.84;100.00;99251.41;4159512;28;20033;-75
2023/04/17 07:52:19;;;;;;;17.80;10.38;;;;;;;5.85;100.00;99260.47;4159818;28;20110;-75
2023/04/17 07:54:19;;;;;;;15.55;9.98;;;;;;;5.84;100.00;99256.09;4158767;28;20420;-76
2023/04/17 07:56:20;;;;;;;17.45;10.63;;;;;;;5.80;100.00;99249.69;4159204;28;20395;-75
2023/04/17 07:58:21;;;;;;;15.23;10.60;;;;;;;5.83;100.00;99254.50;4160145;28;20049;-75
2023/04/17 08:00:22;;;;;;;17.35;11.10;;;;;;;5.83;100.00;99251.75;4164976;28;20102;-75
2023/04/17 08:02:22;;;;;;;16.67;10.57;;;;;;;5.88;100.00;99257.88;4159486;28;20049;-75
2023/04/17 08:04:24;;;;;;;18.75;11.52;;;;;;;5.89;100.00;99261.44;4158739;28;20041;-76
2023/04/17 08:06:25;;;;;;;18.38;10.95;;;;;;;5.95;100.00;99260.13;4158973;28;20048;-75
2023/04/17 08:08:25;;;;;;;17.45;11.90;;;;;;;5.98;100.00;99259.50;4159311;28;20044;-75
2023/04/17 08:10:27;;;;;;;18.92;12.02;;;;;;;6.01;100.00;99258.84;4159012;28;20077;-75
2023/04/17 08:12:27;;;;;;;23.10;13.32;;;;;;;6.07;100.00;99270.47;4160418;28;20124;-75
2023/04/17 08:14:28;;;;;;;20.63;12.73;;;;;;;6.11;100.00;99258.47;4157956;28;20127;-75
2023/04/17 08:16:28;;;;;;;17.45;11.90;;;;;;;6.14;100.00;99263.31;4160852;28;20040;-75
2023/04/17 08:18:28;;;;;;;18.73;11.60;;;;;;;6.16;100.00;99269.28;4165224;28;20663;-75
2023/04/17 08:20:28;;;;;;;18.73;12.77;;;;;;;6.15;100.00;99273.16;4180406;28;20071;-75
2023/04/17 08:22:29;;;;;;;20.30;12.13;;;;;;;6.17;100.00;99268.13;4141257;28;20053;-75
2023/04/17 08:24:30;;;;;;;16.67;10.95;;;;;;;6.18;100.00;99279.94;4164028;28;20029;-75
2023/04/17 08:26:31;;;;;;;17.23;11.60;;;;;;;6.21;100.00;99268.31;4160346;28;20133;-75
2023/04/17 08:28:31;;;;;;;16.63;11.40;;;;;;;6.27;100.00;99274.41;4117761;28;1194180;-75
2023/04/17 08:30:31;;;;;;;20.40;11.98;;;;;;;6.31;100.00;99276.19;4163512;28;20131;-76
2023/04/17 08:32:45;;;;;;;21.95;12.20;;;;;;;6.30;100.00;99274.56;4165725;28;20077;-75
2023/04/17 08:34:46;;;;;;;18.08;12.23;;;;;;;6.35;100.00;99277.13;4160174;28;20037;-75
2023/04/17 08:36:47;;;;;;;20.27;12.60;;;;;;;6.40;100.00;99284.38;4158796;28;20404;-74
2023/04/17 08:38:47;;;;;;;20.67;13.60;;;;;;;6.40;100.00;99298.13;4160162;28;20493;-75
2023/04/17 08:40:50;;;;;;;30.05;13.80;;;;;;;6.40;100.00;99281.63;4159341;28;20400;-75
2023/04/17 08:42:52;;;;;;;19.73;12.48;;;;;;;6.39;100.00;99285.53;4165684;28;20049;-75
2023/04/17 08:44:57;;;;;;;15.98;10.90;;;;;;;6.40;100.00;99287.13;4160619;28;20481;-75
2023/04/17 08:46:58;;;;;;;17.02;10.25;;;;;;;6.42;100.00;99282.91;4159978;28;20079;-76
2023/04/17 08:49:01;;;;;;;18.45;10.55;;;;;;;6.44;100.00;99286.13;4158871;28;20045;-75
2023/04/17 08:51:02;;;;;;;14.98;10.60;;;;;;;6.45;100.00;99287.75;4159274;28;20045;-75
2023/04/17 08:53:02;;;;;;;17.23;10.63;;;;;;;6.46;100.00;99286.63;4159088;28;20046;-75
2023/04/17 08:55:03;;;;;;;17.77;11.65;;;;;;;6.46;100.00;99286.63;4159579;28;20088;-75
2023/04/17 08:57:04;;;;;;;17.38;11.20;;;;;;;6.43;100.00;99290.00;4159997;28;20037;-75
2023/04/17 08:59:05;;;;;;;17.92;10.80;;;;;;;6.42;100.00;99287.59;4170352;28;20037;-76
2023/04/17 09:01:10;;;;;;;18.23;12.68;;;;;;;6.49;100.00;99298.88;4159257;28;20458;-75
2023/04/17 09:03:12;;;;;;;16.25;11.60;;;;;;;6.50;100.00;99303.25;4158365;28;20041;-75
2023/04/17 09:05:20;;;;;;;17.83;11.07;;;;;;;6.55;100.00;99300.31;4159198;28;20041;-75
2023/04/17 09:07:31;;;;;;;16.92;11.77;;;;;;;6.60;100.00;99305.59;4160064;28;20365;-75
2023/04/17 09:09:50;;;;;;;17.08;11.63;;;;;;;6.63;100.00;99306.91;4160230;28;20509;-75
2023/04/17 09:12:09;;;;;;;16.98;11.27;;;;;;;6.63;100.00;99302.22;4158431;28;20180;-75
2023/04/17 09:14:29;;;;;;;17.13;11.35;;;;;;;6.67;100.00;99303.16;4157020;28;20053;-75
2023/04/17 09:16:29;;;;;;;18.52;12.15;;;;;;;6.70;100.00;99305.25;4159981;28;20048;-75
2023/04/17 09:18:31;;;;;;;22.92;14.18;;;;;;;6.76;100.00;99305.84;4161575;28;20419;-76